PWSweather.com
Personal Weather Stations
Station Observations
WD4JKH
Forsyth, GA 31029

Forsyth, GA 31029

Lat: 33.033225, Lon: -83.927995

Elevation: 709

Station Type: Davis Vantage VUE

High Low Average
Temperature 63.0°F17.2°C 39.1°F3.9°C 51.2°F10.7°C
Dew Point 36.4°F2.4°C 24.8°F-4.0°C 29.8°F-1.2°C
Winds 6.7 mph 10.8 kmh Calm Calm 2.0 mph SW3.2 kmh SW
Wind Gusts 13.0 mph20.9 kmh -- 6.0 mph9.7 kmh
Humidity 68% 25% 45%
Pressure 30.19 in1022.4 mb 30.00 in1015.9 mb -
Precipitation 0.00 in0.0 mm - -
Hour Temp Dew Point Humidity Winds Wind Gusts Pressure Precip Precip Rate Daily Precip Total
12:02 AM 45.2°F7.3°C 25.5°F-3.6°C 46% 1.9 mph NW3.1 kmh NW 4.0 mph6.4 kmh 30.18 in1022.0 mb 0.00 in0.0 mm 0.00 in0.0 mm 0.00 in0.0 mm
12:07 AM 45.1°F7.3°C 25.4°F-3.7°C 46% 1.9 mph NW3.1 kmh NW 4.0 mph6.4 kmh 30.18 in1022.0 mb 0.00 in0.0 mm 0.00 in0.0 mm 0.00 in0.0 mm
12:12 AM 45.1°F7.3°C 25.4°F-3.7°C 46% 1.4 mph WNW2.3 kmh WNW 4.0 mph6.4 kmh 30.18 in1022.0 mb 0.00 in0.0 mm 0.00 in0.0 mm 0.00 in0.0 mm
12:17 AM 45.2°F7.3°C 25.0°F-3.9°C 45% 1.8 mph NW2.9 kmh NW 5.0 mph8.0 kmh 30.18 in1022.0 mb 0.00 in0.0 mm 0.00 in0.0 mm 0.00 in0.0 mm
12:22 AM 45.3°F7.4°C 25.2°F-3.8°C 45% 1.4 mph NW2.3 kmh NW 5.0 mph8.0 kmh 30.18 in1022.0 mb 0.00 in0.0 mm 0.00 in0.0 mm 0.00 in0.0 mm
12:27 AM 45.3°F7.4°C 25.1°F-3.8°C 45% 1.5 mph WNW2.4 kmh WNW 5.0 mph8.0 kmh 30.18 in1022.0 mb 0.00 in0.0 mm 0.00 in0.0 mm 0.00 in0.0 mm
12:32 AM 45.3°F7.4°C 25.2°F-3.8°C 45% 2.1 mph WNW3.4 kmh WNW 5.0 mph8.0 kmh 30.18 in1022.0 mb 0.00 in0.0 mm 0.00 in0.0 mm 0.00 in0.0 mm
12:37 AM 45.2°F7.3°C 25.1°F-3.8°C 45% 1.8 mph WNW2.9 kmh WNW 4.0 mph6.4 kmh 30.18 in1022.0 mb 0.00 in0.0 mm 0.00 in0.0 mm 0.00 in0.0 mm
12:42 AM 45.0°F7.2°C 24.9°F-3.9°C 45% 2.4 mph WNW3.9 kmh WNW 5.0 mph8.0 kmh 30.19 in1022.4 mb 0.00 in0.0 mm 0.00 in0.0 mm 0.00 in0.0 mm
12:47 AM 44.9°F7.2°C 24.8°F-4.0°C 45% 1.8 mph WNW2.9 kmh WNW 6.0 mph9.7 kmh 30.19 in1022.4 mb 0.00 in0.0 mm 0.00 in0.0 mm 0.00 in0.0 mm
12:52 AM 44.8°F7.1°C 25.2°F-3.8°C 46% 1.6 mph W2.6 kmh W 6.0 mph9.7 kmh 30.18 in1022.0 mb 0.00 in0.0 mm 0.00 in0.0 mm 0.00 in0.0 mm
12:57 AM 44.6°F7.0°C 25.0°F-3.9°C 46% 1.9 mph WNW3.1 kmh WNW 6.0 mph9.7 kmh 30.19 in1022.4 mb 0.00 in0.0 mm 0.00 in0.0 mm 0.00 in0.0 mm
01:02 AM 44.7°F7.1°C 25.2°F-3.8°C 46% 2.3 mph WNW3.7 kmh WNW 5.0 mph8.0 kmh 30.19 in1022.4 mb 0.00 in0.0 mm 0.00 in0.0 mm 0.00 in0.0 mm
01:07 AM 44.7°F7.1°C 25.1°F-3.8°C 46% 1.3 mph WNW2.1 kmh WNW 5.0 mph8.0 kmh 30.19 in1022.4 mb 0.00 in0.0 mm 0.00 in0.0 mm 0.00 in0.0 mm
01:12 AM 44.7°F7.1°C 25.1°F-3.8°C 46% 2.3 mph NW3.7 kmh NW 6.0 mph9.7 kmh 30.19 in1022.4 mb 0.00 in0.0 mm 0.00 in0.0 mm 0.00 in0.0 mm
01:17 AM 44.6°F7.0°C 25.0°F-3.9°C 46% 2.4 mph NW3.9 kmh NW 6.0 mph9.7 kmh 30.19 in1022.4 mb 0.00 in0.0 mm 0.00 in0.0 mm 0.00 in0.0 mm
01:22 AM 44.4°F6.9°C 25.4°F-3.7°C 47% 2.8 mph NW4.5 kmh NW 6.0 mph9.7 kmh 30.19 in1022.4 mb 0.00 in0.0 mm 0.00 in0.0 mm 0.00 in0.0 mm
01:27 AM 44.4°F6.9°C 25.3°F-3.7°C 47% 3.0 mph WNW4.8 kmh WNW 8.0 mph12.9 kmh 30.19 in1022.4 mb 0.00 in0.0 mm 0.00 in0.0 mm 0.00 in0.0 mm
01:32 AM 44.5°F6.9°C 25.4°F-3.7°C 47% 3.1 mph NW5.0 kmh NW 8.0 mph12.9 kmh 30.19 in1022.4 mb 0.00 in0.0 mm 0.00 in0.0 mm 0.00 in0.0 mm
01:37 AM 44.5°F6.9°C 25.5°F-3.6°C 47% 2.1 mph NW3.4 kmh NW 8.0 mph12.9 kmh 30.19 in1022.4 mb 0.00 in0.0 mm 0.00 in0.0 mm 0.00 in0.0 mm
01:42 AM 44.5°F6.9°C 25.4°F-3.7°C 47% 1.8 mph NW2.9 kmh NW 8.0 mph12.9 kmh 30.19 in1022.4 mb 0.00 in0.0 mm 0.00 in0.0 mm 0.00 in0.0 mm
01:47 AM 44.4°F6.9°C 25.9°F-3.4°C 48% 1.5 mph NW2.4 kmh NW 5.0 mph8.0 kmh 30.18 in1022.0 mb 0.00 in0.0 mm 0.00 in0.0 mm 0.00 in0.0 mm
01:52 AM 44.3°F6.8°C 25.8°F-3.4°C 48% 1.2 mph NW1.9 kmh NW 5.0 mph8.0 kmh 30.18 in1022.0 mb 0.00 in0.0 mm 0.00 in0.0 mm 0.00 in0.0 mm
01:57 AM 44.3°F6.8°C 25.8°F-3.4°C 48% 1.3 mph NW2.1 kmh NW 5.0 mph8.0 kmh 30.18 in1022.0 mb 0.00 in0.0 mm 0.00 in0.0 mm 0.00 in0.0 mm
02:02 AM 44.1°F6.7°C 26.1°F-3.3°C 49% 1.3 mph NW2.1 kmh NW 3.0 mph4.8 kmh 30.18 in1022.0 mb 0.00 in0.0 mm 0.00 in0.0 mm 0.00 in0.0 mm
02:07 AM 44.1°F6.7°C 25.6°F-3.6°C 48% 1.1 mph NW1.8 kmh NW 3.0 mph4.8 kmh 30.17 in1021.7 mb 0.00 in0.0 mm 0.00 in0.0 mm 0.00 in0.0 mm
02:12 AM 44.1°F6.7°C 25.6°F-3.6°C 48% 1.6 mph NW2.6 kmh NW 3.0 mph4.8 kmh 30.17 in1021.7 mb 0.00 in0.0 mm 0.00 in0.0 mm 0.00 in0.0 mm
02:17 AM 44.3°F6.8°C 25.8°F-3.4°C 48% 1.6 mph NW2.6 kmh NW 3.0 mph4.8 kmh 30.17 in1021.7 mb 0.00 in0.0 mm 0.00 in0.0 mm 0.00 in0.0 mm
02:22 AM 44.4°F6.9°C 25.9°F-3.4°C 48% 1.6 mph NW2.6 kmh NW 3.0 mph4.8 kmh 30.17 in1021.7 mb 0.00 in0.0 mm 0.00 in0.0 mm 0.00 in0.0 mm
02:27 AM 44.3°F6.8°C 25.8°F-3.4°C 48% Calm Calm 3.0 mph4.8 kmh 30.16 in1021.3 mb 0.00 in0.0 mm 0.00 in0.0 mm 0.00 in0.0 mm
02:33 AM 44.1°F6.7°C 25.6°F-3.6°C 48% Calm Calm 3.0 mph4.8 kmh 30.16 in1021.3 mb 0.00 in0.0 mm 0.00 in0.0 mm 0.00 in0.0 mm
02:38 AM 43.7°F6.5°C 25.7°F-3.5°C 49% Calm Calm 3.0 mph4.8 kmh 30.15 in1021.0 mb 0.00 in0.0 mm 0.00 in0.0 mm 0.00 in0.0 mm
02:42 AM 43.6°F6.4°C 25.6°F-3.6°C 49% Calm Calm 3.0 mph4.8 kmh 30.15 in1021.0 mb 0.00 in0.0 mm 0.00 in0.0 mm 0.00 in0.0 mm
02:48 AM 43.8°F6.6°C 25.8°F-3.4°C 49% 1.0 mph NW1.6 kmh NW 1.0 mph1.6 kmh 30.15 in1021.0 mb 0.00 in0.0 mm 0.00 in0.0 mm 0.00 in0.0 mm
02:53 AM 44.0°F6.7°C 26.0°F-3.3°C 49% 1.0 mph NW1.6 kmh NW 2.0 mph3.2 kmh 30.15 in1021.0 mb 0.00 in0.0 mm 0.00 in0.0 mm 0.00 in0.0 mm
02:58 AM 44.0°F6.7°C 26.0°F-3.3°C 49% 2.3 mph NW3.7 kmh NW 4.0 mph6.4 kmh 30.15 in1021.0 mb 0.00 in0.0 mm 0.00 in0.0 mm 0.00 in0.0 mm
03:03 AM 44.0°F6.7°C 26.0°F-3.3°C 49% 1.6 mph NW2.6 kmh NW 4.0 mph6.4 kmh 30.16 in1021.3 mb 0.00 in0.0 mm 0.00 in0.0 mm 0.00 in0.0 mm
03:08 AM 43.8°F6.6°C 26.3°F-3.2°C 50% 1.3 mph NW2.1 kmh NW 4.0 mph6.4 kmh 30.16 in1021.3 mb 0.00 in0.0 mm 0.00 in0.0 mm 0.00 in0.0 mm
03:13 AM 43.4°F6.3°C 25.9°F-3.4°C 50% 1.7 mph NW2.7 kmh NW 4.0 mph6.4 kmh 30.16 in1021.3 mb 0.00 in0.0 mm 0.00 in0.0 mm 0.00 in0.0 mm
03:18 AM 43.2°F6.2°C 26.3°F-3.2°C 51% 1.2 mph NW1.9 kmh NW 4.0 mph6.4 kmh 30.17 in1021.7 mb 0.00 in0.0 mm 0.00 in0.0 mm 0.00 in0.0 mm
03:23 AM 42.9°F6.1°C 26.0°F-3.3°C 51% 1.8 mph NW2.9 kmh NW 4.0 mph6.4 kmh 30.16 in1021.3 mb 0.00 in0.0 mm 0.00 in0.0 mm 0.00 in0.0 mm
03:27 AM 42.7°F5.9°C 26.3°F-3.2°C 52% 1.7 mph WNW2.7 kmh WNW 4.0 mph6.4 kmh 30.17 in1021.7 mb 0.00 in0.0 mm 0.00 in0.0 mm 0.00 in0.0 mm
03:32 AM 42.7°F5.9°C 26.3°F-3.2°C 52% 1.5 mph WNW2.4 kmh WNW 4.0 mph6.4 kmh 30.17 in1021.7 mb 0.00 in0.0 mm 0.00 in0.0 mm 0.00 in0.0 mm
03:37 AM 42.7°F5.9°C 26.3°F-3.2°C 52% 1.5 mph NW2.4 kmh NW 4.0 mph6.4 kmh 30.17 in1021.7 mb 0.00 in0.0 mm 0.00 in0.0 mm 0.00 in0.0 mm
03:42 AM 42.7°F5.9°C 26.3°F-3.2°C 52% 1.1 mph WNW1.8 kmh WNW 3.0 mph4.8 kmh 30.17 in1021.7 mb 0.00 in0.0 mm 0.00 in0.0 mm 0.00 in0.0 mm
03:47 AM 42.5°F5.8°C 26.1°F-3.3°C 52% 1.7 mph WNW2.7 kmh WNW 3.0 mph4.8 kmh 30.18 in1022.0 mb 0.00 in0.0 mm 0.00 in0.0 mm 0.00 in0.0 mm
03:52 AM 42.6°F5.9°C 26.2°F-3.2°C 52% 1.0 mph NW1.6 kmh NW 4.0 mph6.4 kmh 30.17 in1021.7 mb 0.00 in0.0 mm 0.00 in0.0 mm 0.00 in0.0 mm
03:57 AM 42.5°F5.8°C 26.6°F-3.0°C 53% 1.8 mph WNW2.9 kmh WNW 4.0 mph6.4 kmh 30.17 in1021.7 mb 0.00 in0.0 mm 0.00 in0.0 mm 0.00 in0.0 mm
04:02 AM 42.4°F5.8°C 26.5°F-3.1°C 53% 1.4 mph NW2.3 kmh NW 4.0 mph6.4 kmh 30.17 in1021.7 mb 0.00 in0.0 mm 0.00 in0.0 mm 0.00 in0.0 mm
04:07 AM 42.2°F5.7°C 26.3°F-3.2°C 53% 1.1 mph NW1.8 kmh NW 3.0 mph4.8 kmh 30.18 in1022.0 mb 0.00 in0.0 mm 0.00 in0.0 mm 0.00 in0.0 mm
04:12 AM 42.2°F5.7°C 26.3°F-3.2°C 53% 1.0 mph NW1.6 kmh NW 3.0 mph4.8 kmh 30.17 in1021.7 mb 0.00 in0.0 mm 0.00 in0.0 mm 0.00 in0.0 mm
04:17 AM 42.3°F5.7°C 26.4°F-3.1°C 53% 1.3 mph NW2.1 kmh NW 3.0 mph4.8 kmh 30.18 in1022.0 mb 0.00 in0.0 mm 0.00 in0.0 mm 0.00 in0.0 mm
04:22 AM 42.4°F5.8°C 26.0°F-3.3°C 52% 1.4 mph NW2.3 kmh NW 4.0 mph6.4 kmh 30.18 in1022.0 mb 0.00 in0.0 mm 0.00 in0.0 mm 0.00 in0.0 mm
04:27 AM 42.7°F5.9°C 26.3°F-3.2°C 52% 1.2 mph NW1.9 kmh NW 4.0 mph6.4 kmh 30.18 in1022.0 mb 0.00 in0.0 mm 0.00 in0.0 mm 0.00 in0.0 mm
04:32 AM 42.8°F6.0°C 25.9°F-3.4°C 51% 1.3 mph NW2.1 kmh NW 4.0 mph6.4 kmh 30.18 in1022.0 mb 0.00 in0.0 mm 0.00 in0.0 mm 0.00 in0.0 mm
04:37 AM 42.8°F6.0°C 26.4°F-3.1°C 52% 1.0 mph NNW1.6 kmh NNW 4.0 mph6.4 kmh 30.18 in1022.0 mb 0.00 in0.0 mm 0.00 in0.0 mm 0.00 in0.0 mm
04:42 AM 42.5°F5.8°C 26.1°F-3.3°C 52% 2.3 mph NW3.7 kmh NW 3.0 mph4.8 kmh 30.18 in1022.0 mb 0.00 in0.0 mm 0.00 in0.0 mm 0.00 in0.0 mm
04:47 AM 42.5°F5.8°C 26.1°F-3.3°C 52% 1.2 mph NW1.9 kmh NW 3.0 mph4.8 kmh 30.18 in1022.0 mb 0.00 in0.0 mm 0.00 in0.0 mm 0.00 in0.0 mm
04:52 AM 42.5°F5.8°C 26.6°F-3.0°C 53% 1.0 mph NW1.6 kmh NW 3.0 mph4.8 kmh 30.18 in1022.0 mb 0.00 in0.0 mm 0.00 in0.0 mm 0.00 in0.0 mm
04:57 AM 42.5°F5.8°C 26.1°F-3.3°C 52% 1.2 mph NW1.9 kmh NW 3.0 mph4.8 kmh 30.18 in1022.0 mb 0.00 in0.0 mm 0.00 in0.0 mm 0.00 in0.0 mm
05:02 AM 42.7°F5.9°C 26.3°F-3.2°C 52% 1.4 mph NW2.3 kmh NW 3.0 mph4.8 kmh 30.18 in1022.0 mb 0.00 in0.0 mm 0.00 in0.0 mm 0.00 in0.0 mm
05:07 AM 42.7°F5.9°C 26.3°F-3.2°C 52% 1.4 mph NW2.3 kmh NW 3.0 mph4.8 kmh 30.18 in1022.0 mb 0.00 in0.0 mm 0.00 in0.0 mm 0.00 in0.0 mm
05:12 AM 42.7°F5.9°C 26.3°F-3.2°C 52% 1.4 mph NNW2.3 kmh NNW 4.0 mph6.4 kmh 30.18 in1022.0 mb 0.00 in0.0 mm 0.00 in0.0 mm 0.00 in0.0 mm
05:17 AM 42.7°F5.9°C 26.3°F-3.2°C 52% 1.4 mph NW2.3 kmh NW 4.0 mph6.4 kmh 30.18 in1022.0 mb 0.00 in0.0 mm 0.00 in0.0 mm 0.00 in0.0 mm
05:22 AM 42.7°F5.9°C 26.3°F-3.2°C 52% 1.6 mph NW2.6 kmh NW 4.0 mph6.4 kmh 30.18 in1022.0 mb 0.00 in0.0 mm 0.00 in0.0 mm 0.00 in0.0 mm
05:27 AM 42.5°F5.8°C 26.6°F-3.0°C 53% 1.2 mph NW1.9 kmh NW 4.0 mph6.4 kmh 30.18 in1022.0 mb 0.00 in0.0 mm 0.00 in0.0 mm 0.00 in0.0 mm
05:32 AM 42.2°F5.7°C 26.3°F-3.2°C 53% Calm Calm 3.0 mph4.8 kmh 30.17 in1021.7 mb 0.00 in0.0 mm 0.00 in0.0 mm 0.00 in0.0 mm
05:37 AM 41.9°F5.5°C 26.5°F-3.1°C 54% Calm Calm 3.0 mph4.8 kmh 30.17 in1021.7 mb 0.00 in0.0 mm 0.00 in0.0 mm 0.00 in0.0 mm
05:42 AM 41.7°F5.4°C 26.3°F-3.2°C 54% Calm Calm 2.0 mph3.2 kmh 30.17 in1021.7 mb 0.00 in0.0 mm 0.00 in0.0 mm 0.00 in0.0 mm
05:47 AM 41.8°F5.4°C 26.4°F-3.1°C 54% Calm Calm 1.0 mph1.6 kmh 30.17 in1021.7 mb 0.00 in0.0 mm 0.00 in0.0 mm 0.00 in0.0 mm
05:52 AM 42.0°F5.6°C 26.1°F-3.3°C 53% Calm Calm -- 30.17 in1021.7 mb 0.00 in0.0 mm 0.00 in0.0 mm 0.00 in0.0 mm
05:57 AM 42.2°F5.7°C 25.8°F-3.4°C 52% Calm Calm -- 30.17 in1021.7 mb 0.00 in0.0 mm 0.00 in0.0 mm 0.00 in0.0 mm
06:02 AM 42.3°F5.7°C 25.9°F-3.4°C 52% Calm Calm -- 30.17 in1021.7 mb 0.00 in0.0 mm 0.00 in0.0 mm 0.00 in0.0 mm
06:07 AM 41.9°F5.5°C 25.5°F-3.6°C 52% Calm Calm -- 30.16 in1021.3 mb 0.00 in0.0 mm 0.00 in0.0 mm 0.00 in0.0 mm
06:12 AM 41.5°F5.3°C 25.6°F-3.6°C 53% Calm Calm -- 30.16 in1021.3 mb 0.00 in0.0 mm 0.00 in0.0 mm 0.00 in0.0 mm
06:17 AM 41.3°F5.2°C 25.4°F-3.7°C 53% Calm Calm -- 30.16 in1021.3 mb 0.00 in0.0 mm 0.00 in0.0 mm 0.00 in0.0 mm
06:22 AM 41.2°F5.1°C 25.3°F-3.7°C 53% Calm Calm -- 30.16 in1021.3 mb 0.00 in0.0 mm 0.00 in0.0 mm 0.00 in0.0 mm
06:27 AM 41.4°F5.2°C 26.0°F-3.3°C 54% Calm Calm -- 30.16 in1021.3 mb 0.00 in0.0 mm 0.00 in0.0 mm 0.00 in0.0 mm
06:32 AM 41.8°F5.4°C 25.9°F-3.4°C 53% 1.0 mph NW1.6 kmh NW 1.0 mph1.6 kmh 30.16 in1021.3 mb 0.00 in0.0 mm 0.00 in0.0 mm 0.00 in0.0 mm
06:37 AM 42.2°F5.7°C 25.8°F-3.4°C 52% Calm Calm 1.0 mph1.6 kmh 30.17 in1021.7 mb 0.00 in0.0 mm 0.00 in0.0 mm 0.00 in0.0 mm
06:42 AM 42.4°F5.8°C 26.0°F-3.3°C 52% 1.0 mph W1.6 kmh W 1.0 mph1.6 kmh 30.17 in1021.7 mb 0.00 in0.0 mm 0.00 in0.0 mm 0.00 in0.0 mm
06:47 AM 42.3°F5.7°C 25.9°F-3.4°C 52% 1.0 mph WSW1.6 kmh WSW 1.0 mph1.6 kmh 30.17 in1021.7 mb 0.00 in0.0 mm 0.00 in0.0 mm 0.00 in0.0 mm
06:52 AM 41.8°F5.4°C 25.9°F-3.4°C 53% Calm Calm 1.0 mph1.6 kmh 30.17 in1021.7 mb 0.00 in0.0 mm 0.00 in0.0 mm 0.00 in0.0 mm
06:57 AM 41.3°F5.2°C 25.9°F-3.4°C 54% Calm Calm 1.0 mph1.6 kmh 30.17 in1021.7 mb 0.00 in0.0 mm 0.00 in0.0 mm 0.00 in0.0 mm
07:02 AM 41.0°F5.0°C 25.6°F-3.6°C 54% Calm Calm 1.0 mph1.6 kmh 30.16 in1021.3 mb 0.00 in0.0 mm 0.00 in0.0 mm 0.00 in0.0 mm
07:07 AM 40.7°F4.8°C 25.8°F-3.4°C 55% Calm Calm 1.0 mph1.6 kmh 30.16 in1021.3 mb 0.00 in0.0 mm 0.00 in0.0 mm 0.00 in0.0 mm
07:12 AM 41.0°F5.0°C 25.6°F-3.6°C 54% Calm Calm -- 30.16 in1021.3 mb 0.00 in0.0 mm 0.00 in0.0 mm 0.00 in0.0 mm
07:17 AM 41.3°F5.2°C 25.9°F-3.4°C 54% Calm Calm 1.0 mph1.6 kmh 30.16 in1021.3 mb 0.00 in0.0 mm 0.00 in0.0 mm 0.00 in0.0 mm
07:22 AM 41.0°F5.0°C 25.6°F-3.6°C 54% Calm Calm 1.0 mph1.6 kmh 30.17 in1021.7 mb 0.00 in0.0 mm 0.00 in0.0 mm 0.00 in0.0 mm
07:27 AM 40.5°F4.7°C 25.6°F-3.6°C 55% Calm Calm 1.0 mph1.6 kmh 30.17 in1021.7 mb 0.00 in0.0 mm 0.00 in0.0 mm 0.00 in0.0 mm
07:32 AM 39.9°F4.4°C 25.5°F-3.6°C 56% Calm Calm 1.0 mph1.6 kmh 30.18 in1022.0 mb 0.00 in0.0 mm 0.00 in0.0 mm 0.00 in0.0 mm
07:37 AM 39.6°F4.2°C 25.6°F-3.6°C 57% Calm Calm -- 30.18 in1022.0 mb 0.00 in0.0 mm 0.00 in0.0 mm 0.00 in0.0 mm
07:42 AM 39.6°F4.2°C 25.6°F-3.6°C 57% Calm Calm -- 30.18 in1022.0 mb 0.00 in0.0 mm 0.00 in0.0 mm 0.00 in0.0 mm
07:47 AM 39.4°F4.1°C 26.7°F-2.9°C 60% Calm Calm -- 30.18 in1022.0 mb 0.00 in0.0 mm 0.00 in0.0 mm 0.00 in0.0 mm
07:52 AM 39.3°F4.1°C 27.4°F-2.6°C 62% Calm Calm -- 30.18 in1022.0 mb 0.00 in0.0 mm 0.00 in0.0 mm 0.00 in0.0 mm
07:57 AM 39.1°F3.9°C 28.4°F-2.0°C 65% Calm Calm -- 30.19 in1022.4 mb 0.00 in0.0 mm 0.00 in0.0 mm 0.00 in0.0 mm
08:02 AM 39.1°F3.9°C 29.1°F-1.6°C 67% Calm Calm -- 30.19 in1022.4 mb 0.00 in0.0 mm 0.00 in0.0 mm 0.00 in0.0 mm
08:07 AM 40.2°F4.6°C 30.6°F-0.8°C 68% Calm Calm -- 30.19 in1022.4 mb 0.00 in0.0 mm 0.00 in0.0 mm 0.00 in0.0 mm
08:12 AM 42.4°F5.8°C 30.4°F-0.9°C 62% Calm Calm -- 30.19 in1022.4 mb 0.00 in0.0 mm 0.00 in0.0 mm 0.00 in0.0 mm
08:17 AM 42.5°F5.8°C 30.1°F-1.1°C 61% Calm Calm -- 30.19 in1022.4 mb 0.00 in0.0 mm 0.00 in0.0 mm 0.00 in0.0 mm
08:22 AM 42.9°F6.1°C 31.6°F-0.2°C 64% Calm Calm -- 30.19 in1022.4 mb 0.00 in0.0 mm 0.00 in0.0 mm 0.00 in0.0 mm
08:27 AM 43.9°F6.6°C 31.8°F-0.1°C 62% Calm Calm -- 30.18 in1022.0 mb 0.00 in0.0 mm 0.00 in0.0 mm 0.00 in0.0 mm
08:32 AM 44.2°F6.8°C 30.4°F-0.9°C 58% Calm Calm -- 30.18 in1022.0 mb 0.00 in0.0 mm 0.00 in0.0 mm 0.00 in0.0 mm
08:37 AM 43.7°F6.5°C 30.8°F-0.7°C 60% Calm Calm -- 30.18 in1022.0 mb 0.00 in0.0 mm 0.00 in0.0 mm 0.00 in0.0 mm
08:42 AM 43.6°F6.4°C 30.3°F-0.9°C 59% Calm Calm 1.0 mph1.6 kmh 30.18 in1022.0 mb 0.00 in0.0 mm 0.00 in0.0 mm 0.00 in0.0 mm
08:47 AM 43.0°F6.1°C 30.1°F-1.1°C 60% Calm Calm 1.0 mph1.6 kmh 30.18 in1022.0 mb 0.00 in0.0 mm 0.00 in0.0 mm 0.00 in0.0 mm
08:52 AM 42.8°F6.0°C 31.2°F-0.4°C 63% Calm Calm 1.0 mph1.6 kmh 30.18 in1022.0 mb 0.00 in0.0 mm 0.00 in0.0 mm 0.00 in0.0 mm
08:57 AM 42.7°F5.9°C 29.8°F-1.2°C 60% 1.0 mph SE1.6 kmh SE 1.0 mph1.6 kmh 30.18 in1022.0 mb 0.00 in0.0 mm 0.00 in0.0 mm 0.00 in0.0 mm
09:02 AM 42.4°F5.8°C 30.8°F-0.7°C 63% Calm Calm 1.0 mph1.6 kmh 30.18 in1022.0 mb 0.00 in0.0 mm 0.00 in0.0 mm 0.00 in0.0 mm
09:07 AM 42.4°F5.8°C 31.2°F-0.4°C 64% Calm Calm 1.0 mph1.6 kmh 30.18 in1022.0 mb 0.00 in0.0 mm 0.00 in0.0 mm 0.00 in0.0 mm
09:12 AM 43.2°F6.2°C 33.1°F0.6°C 67% Calm Calm 1.0 mph1.6 kmh 30.19 in1022.4 mb 0.00 in0.0 mm 0.00 in0.0 mm 0.00 in0.0 mm
09:17 AM 44.2°F6.8°C 32.9°F0.5°C 64% Calm Calm 1.0 mph1.6 kmh 30.19 in1022.4 mb 0.00 in0.0 mm 0.00 in0.0 mm 0.00 in0.0 mm
09:22 AM 45.4°F7.4°C 32.3°F0.2°C 60% 1.0 mph SE1.6 kmh SE 1.0 mph1.6 kmh 30.19 in1022.4 mb 0.00 in0.0 mm 0.00 in0.0 mm 0.00 in0.0 mm
09:26 AM 45.8°F7.7°C 31.9°F-0.1°C 58% 1.0 mph E1.6 kmh E 1.0 mph1.6 kmh 30.18 in1022.0 mb 0.00 in0.0 mm 0.00 in0.0 mm 0.00 in0.0 mm
09:31 AM 45.7°F7.6°C 30.0°F-1.1°C 54% 2.0 mph E3.2 kmh E 4.0 mph6.4 kmh 30.18 in1022.0 mb 0.00 in0.0 mm 0.00 in0.0 mm 0.00 in0.0 mm
09:36 AM 46.1°F7.8°C 29.9°F-1.2°C 53% 1.7 mph E2.7 kmh E 4.0 mph6.4 kmh 30.18 in1022.0 mb 0.00 in0.0 mm 0.00 in0.0 mm 0.00 in0.0 mm
09:41 AM 46.2°F7.9°C 29.0°F-1.7°C 51% 3.3 mph E5.3 kmh E 5.0 mph8.0 kmh 30.19 in1022.4 mb 0.00 in0.0 mm 0.00 in0.0 mm 0.00 in0.0 mm
09:46 AM 46.4°F8.0°C 28.7°F-1.8°C 50% 1.6 mph E2.6 kmh E 5.0 mph8.0 kmh 30.19 in1022.4 mb 0.00 in0.0 mm 0.00 in0.0 mm 0.00 in0.0 mm
09:51 AM 47.1°F8.4°C 29.9°F-1.2°C 51% 1.0 mph SE1.6 kmh SE 5.0 mph8.0 kmh 30.19 in1022.4 mb 0.00 in0.0 mm 0.00 in0.0 mm 0.00 in0.0 mm
09:56 AM 48.3°F9.1°C 31.0°F-0.6°C 51% Calm Calm 5.0 mph8.0 kmh 30.19 in1022.4 mb 0.00 in0.0 mm 0.00 in0.0 mm 0.00 in0.0 mm
10:01 AM 49.0°F9.4°C 31.6°F-0.2°C 51% Calm Calm 3.0 mph4.8 kmh 30.19 in1022.4 mb 0.00 in0.0 mm 0.00 in0.0 mm 0.00 in0.0 mm
10:06 AM 49.5°F9.7°C 28.9°F-1.7°C 45% 1.0 mph ESE1.6 kmh ESE 2.0 mph3.2 kmh 30.19 in1022.4 mb 0.00 in0.0 mm 0.00 in0.0 mm 0.00 in0.0 mm
10:11 AM 49.4°F9.7°C 30.5°F-0.8°C 48% 1.7 mph E2.7 kmh E 3.0 mph4.8 kmh 30.19 in1022.4 mb 0.00 in0.0 mm 0.00 in0.0 mm 0.00 in0.0 mm
10:16 AM 49.5°F9.7°C 30.0°F-1.1°C 47% 1.0 mph ENE1.6 kmh ENE 3.0 mph4.8 kmh 30.19 in1022.4 mb 0.00 in0.0 mm 0.00 in0.0 mm 0.00 in0.0 mm
10:21 AM 49.6°F9.8°C 30.1°F-1.1°C 47% 1.3 mph E2.1 kmh E 3.0 mph4.8 kmh 30.18 in1022.0 mb 0.00 in0.0 mm 0.00 in0.0 mm 0.00 in0.0 mm
10:26 AM 49.6°F9.8°C 31.2°F-0.4°C 49% 1.5 mph E2.4 kmh E 3.0 mph4.8 kmh 30.18 in1022.0 mb 0.00 in0.0 mm 0.00 in0.0 mm 0.00 in0.0 mm
10:31 AM 50.1°F10.1°C 31.6°F-0.2°C 49% 2.9 mph SE4.7 kmh SE 5.0 mph8.0 kmh 30.18 in1022.0 mb 0.00 in0.0 mm 0.00 in0.0 mm 0.00 in0.0 mm
10:36 AM 50.7°F10.4°C 32.2°F0.1°C 49% 2.1 mph ENE3.4 kmh ENE 5.0 mph8.0 kmh 30.18 in1022.0 mb 0.00 in0.0 mm 0.00 in0.0 mm 0.00 in0.0 mm
10:41 AM 51.3°F10.7°C 32.2°F0.1°C 48% 1.3 mph SSE2.1 kmh SSE 5.0 mph8.0 kmh 30.17 in1021.7 mb 0.00 in0.0 mm 0.00 in0.0 mm 0.00 in0.0 mm
10:46 AM 51.7°F10.9°C 30.4°F-0.9°C 44% 2.4 mph SE3.9 kmh SE 5.0 mph8.0 kmh 30.17 in1021.7 mb 0.00 in0.0 mm 0.00 in0.0 mm 0.00 in0.0 mm
10:51 AM 51.6°F10.9°C 28.6°F-1.9°C 41% 3.0 mph SE4.8 kmh SE 7.0 mph11.3 kmh 30.16 in1021.3 mb 0.00 in0.0 mm 0.00 in0.0 mm 0.00 in0.0 mm
10:56 AM 51.8°F11.0°C 31.0°F-0.6°C 45% 3.4 mph ESE5.5 kmh ESE 7.0 mph11.3 kmh 30.16 in1021.3 mb 0.00 in0.0 mm 0.00 in0.0 mm 0.00 in0.0 mm
11:01 AM 52.4°F11.3°C 30.5°F-0.8°C 43% 2.6 mph ESE4.2 kmh ESE 7.0 mph11.3 kmh 30.16 in1021.3 mb 0.00 in0.0 mm 0.00 in0.0 mm 0.00 in0.0 mm
11:06 AM 52.9°F11.6°C 31.6°F-0.2°C 44% 1.3 mph SE2.1 kmh SE 7.0 mph11.3 kmh 30.16 in1021.3 mb 0.00 in0.0 mm 0.00 in0.0 mm 0.00 in0.0 mm
11:11 AM 53.6°F12.0°C 30.3°F-0.9°C 41% 2.8 mph SSE4.5 kmh SSE 6.0 mph9.7 kmh 30.16 in1021.3 mb 0.00 in0.0 mm 0.00 in0.0 mm 0.00 in0.0 mm
11:16 AM 53.9°F12.2°C 29.9°F-1.2°C 40% 1.5 mph SE2.4 kmh SE 5.0 mph8.0 kmh 30.15 in1021.0 mb 0.00 in0.0 mm 0.00 in0.0 mm 0.00 in0.0 mm
11:21 AM 54.2°F12.3°C 30.8°F-0.7°C 41% 3.0 mph E4.8 kmh E 6.0 mph9.7 kmh 30.15 in1021.0 mb 0.00 in0.0 mm 0.00 in0.0 mm 0.00 in0.0 mm
11:26 AM 54.0°F12.2°C 31.9°F-0.1°C 43% 3.6 mph E5.8 kmh E 6.0 mph9.7 kmh 30.15 in1021.0 mb 0.00 in0.0 mm 0.00 in0.0 mm 0.00 in0.0 mm
11:31 AM 54.2°F12.3°C 31.5°F-0.3°C 42% 3.7 mph ESE6.0 kmh ESE 6.0 mph9.7 kmh 30.15 in1021.0 mb 0.00 in0.0 mm 0.00 in0.0 mm 0.00 in0.0 mm
11:36 AM 54.6°F12.6°C 30.7°F-0.7°C 40% 1.0 mph SW1.6 kmh SW 6.0 mph9.7 kmh 30.15 in1021.0 mb 0.00 in0.0 mm 0.00 in0.0 mm 0.00 in0.0 mm
11:41 AM 55.7°F13.2°C 26.8°F-2.9°C 33% 3.1 mph S5.0 kmh S 6.0 mph9.7 kmh 30.15 in1021.0 mb 0.00 in0.0 mm 0.00 in0.0 mm 0.00 in0.0 mm
11:46 AM 55.7°F13.2°C 28.2°F-2.1°C 35% 1.8 mph SW2.9 kmh SW 6.0 mph9.7 kmh 30.14 in1020.7 mb 0.00 in0.0 mm 0.00 in0.0 mm 0.00 in0.0 mm
11:51 AM 56.0°F13.3°C 29.4°F-1.4°C 36% 3.6 mph SW5.8 kmh SW 6.0 mph9.7 kmh 30.15 in1021.0 mb 0.00 in0.0 mm 0.00 in0.0 mm 0.00 in0.0 mm
11:56 AM 55.8°F13.2°C 26.9°F-2.8°C 33% 5.4 mph SW8.7 kmh SW 8.0 mph12.9 kmh 30.15 in1021.0 mb 0.00 in0.0 mm 0.00 in0.0 mm 0.00 in0.0 mm
12:01 PM 55.9°F13.3°C 29.1°F-1.6°C 36% 2.0 mph WSW3.2 kmh WSW 8.0 mph12.9 kmh 30.15 in1021.0 mb 0.00 in0.0 mm 0.00 in0.0 mm 0.00 in0.0 mm
12:06 PM 56.3°F13.5°C 28.1°F-2.2°C 34% 3.1 mph SSW5.0 kmh SSW 8.0 mph12.9 kmh 30.15 in1021.0 mb 0.00 in0.0 mm 0.00 in0.0 mm 0.00 in0.0 mm
12:11 PM 56.8°F13.8°C 28.5°F-1.9°C 34% 2.6 mph S4.2 kmh S 10.0 mph16.1 kmh 30.15 in1021.0 mb 0.00 in0.0 mm 0.00 in0.0 mm 0.00 in0.0 mm
12:16 PM 57.1°F13.9°C 29.0°F-1.7°C 34% 3.4 mph SW5.5 kmh SW 10.0 mph16.1 kmh 30.15 in1021.0 mb 0.00 in0.0 mm 0.00 in0.0 mm 0.00 in0.0 mm
12:21 PM 57.0°F13.9°C 28.7°F-1.8°C 34% 2.1 mph WSW3.4 kmh WSW 10.0 mph16.1 kmh 30.14 in1020.7 mb 0.00 in0.0 mm 0.00 in0.0 mm 0.00 in0.0 mm
12:26 PM 57.2°F14.0°C 28.9°F-1.7°C 34% 4.4 mph SW7.1 kmh SW 10.0 mph16.1 kmh 30.13 in1020.3 mb 0.00 in0.0 mm 0.00 in0.0 mm 0.00 in0.0 mm
12:31 PM 57.4°F14.1°C 29.9°F-1.2°C 35% 2.5 mph SW4.0 kmh SW 8.0 mph12.9 kmh 30.13 in1020.3 mb 0.00 in0.0 mm 0.00 in0.0 mm 0.00 in0.0 mm
12:36 PM 57.7°F14.3°C 30.0°F-1.1°C 35% 2.7 mph SE4.3 kmh SE 7.0 mph11.3 kmh 30.13 in1020.3 mb 0.00 in0.0 mm 0.00 in0.0 mm 0.00 in0.0 mm
12:41 PM 57.8°F14.3°C 30.1°F-1.1°C 35% 2.1 mph SE3.4 kmh SE 7.0 mph11.3 kmh 30.13 in1020.3 mb 0.00 in0.0 mm 0.00 in0.0 mm 0.00 in0.0 mm
12:46 PM 58.6°F14.8°C 30.8°F-0.7°C 35% 3.3 mph S5.3 kmh S 7.0 mph11.3 kmh 30.12 in1020.0 mb 0.00 in0.0 mm 0.00 in0.0 mm 0.00 in0.0 mm
12:51 PM 58.7°F14.8°C 30.4°F-0.9°C 34% 3.4 mph WSW5.5 kmh WSW 8.0 mph12.9 kmh 30.12 in1020.0 mb 0.00 in0.0 mm 0.00 in0.0 mm 0.00 in0.0 mm
12:56 PM 59.0°F15.0°C 30.6°F-0.8°C 34% 1.0 mph WSW1.6 kmh WSW 8.0 mph12.9 kmh 30.13 in1020.3 mb 0.00 in0.0 mm 0.00 in0.0 mm 0.00 in0.0 mm
01:01 PM 59.5°F15.3°C 30.9°F-0.6°C 34% 1.6 mph SSW2.6 kmh SSW 8.0 mph12.9 kmh 30.12 in1020.0 mb 0.00 in0.0 mm 0.00 in0.0 mm 0.00 in0.0 mm
01:06 PM 60.5°F15.8°C 31.0°F-0.6°C 33% 2.8 mph SSE4.5 kmh SSE 8.0 mph12.9 kmh 30.11 in1019.6 mb 0.00 in0.0 mm 0.00 in0.0 mm 0.00 in0.0 mm
01:11 PM 61.3°F16.3°C 31.2°F-0.4°C 32% 4.0 mph SSE6.4 kmh SSE 8.0 mph12.9 kmh 30.11 in1019.6 mb 0.00 in0.0 mm 0.00 in0.0 mm 0.00 in0.0 mm
01:16 PM 61.5°F16.4°C 28.7°F-1.8°C 29% 4.4 mph S7.1 kmh S 8.0 mph12.9 kmh 30.10 in1019.3 mb 0.00 in0.0 mm 0.00 in0.0 mm 0.00 in0.0 mm
01:21 PM 61.5°F16.4°C 27.0°F-2.8°C 27% 4.3 mph SSW6.9 kmh SSW 10.0 mph16.1 kmh 30.10 in1019.3 mb 0.00 in0.0 mm 0.00 in0.0 mm 0.00 in0.0 mm
01:26 PM 61.4°F16.3°C 29.5°F-1.4°C 30% 2.4 mph SW3.9 kmh SW 10.0 mph16.1 kmh 30.10 in1019.3 mb 0.00 in0.0 mm 0.00 in0.0 mm 0.00 in0.0 mm
01:31 PM 61.5°F16.4°C 27.9°F-2.3°C 28% 4.2 mph SSW6.8 kmh SSW 10.0 mph16.1 kmh 30.09 in1019.0 mb 0.00 in0.0 mm 0.00 in0.0 mm 0.00 in0.0 mm
01:36 PM 61.4°F16.3°C 28.6°F-1.9°C 29% 5.0 mph S8.0 kmh S 10.0 mph16.1 kmh 30.09 in1019.0 mb 0.00 in0.0 mm 0.00 in0.0 mm 0.00 in0.0 mm
01:41 PM 61.8°F16.6°C 29.8°F-1.2°C 30% 1.7 mph SW2.7 kmh SW 8.0 mph12.9 kmh 30.08 in1018.6 mb 0.00 in0.0 mm 0.00 in0.0 mm 0.00 in0.0 mm
01:46 PM 62.2°F16.8°C 28.7°F-1.8°C 28% 6.7 mph SW10.8 kmh SW 11.0 mph17.7 kmh 30.09 in1019.0 mb 0.00 in0.0 mm 0.00 in0.0 mm 0.00 in0.0 mm
01:51 PM 62.2°F16.8°C 30.2°F-1.0°C 30% 2.1 mph S3.4 kmh S 11.0 mph17.7 kmh 30.09 in1019.0 mb 0.00 in0.0 mm 0.00 in0.0 mm 0.00 in0.0 mm
01:56 PM 62.4°F16.9°C 29.5°F-1.4°C 29% 3.9 mph SSW6.3 kmh SSW 11.0 mph17.7 kmh 30.09 in1019.0 mb 0.00 in0.0 mm 0.00 in0.0 mm 0.00 in0.0 mm
02:01 PM 62.6°F17.0°C 28.0°F-2.2°C 27% 4.0 mph S6.4 kmh S 11.0 mph17.7 kmh 30.09 in1019.0 mb 0.00 in0.0 mm 0.00 in0.0 mm 0.00 in0.0 mm
02:06 PM 62.5°F16.9°C 26.0°F-3.3°C 25% 5.8 mph WSW9.3 kmh WSW 13.0 mph20.9 kmh 30.09 in1019.0 mb 0.00 in0.0 mm 0.00 in0.0 mm 0.00 in0.0 mm
02:11 PM 62.2°F16.8°C 27.8°F-2.3°C 27% 2.5 mph SW4.0 kmh SW 13.0 mph20.9 kmh 30.09 in1019.0 mb 0.00 in0.0 mm 0.00 in0.0 mm 0.00 in0.0 mm
02:16 PM 62.1°F16.7°C 26.8°F-2.9°C 26% 3.8 mph SW6.1 kmh SW 13.0 mph20.9 kmh 30.08 in1018.6 mb 0.00 in0.0 mm 0.00 in0.0 mm 0.00 in0.0 mm
02:21 PM 62.0°F16.7°C 27.6°F-2.4°C 27% 4.6 mph SSW7.4 kmh SSW 13.0 mph20.9 kmh 30.07 in1018.3 mb 0.00 in0.0 mm 0.00 in0.0 mm 0.00 in0.0 mm
02:26 PM 62.1°F16.7°C 28.4°F-2.0°C 28% 3.6 mph SSW5.8 kmh SSW 10.0 mph16.1 kmh 30.06 in1017.9 mb 0.00 in0.0 mm 0.00 in0.0 mm 0.00 in0.0 mm
02:31 PM 62.7°F17.1°C 28.0°F-2.2°C 27% 4.3 mph SW6.9 kmh SW 10.0 mph16.1 kmh 30.06 in1017.9 mb 0.00 in0.0 mm 0.00 in0.0 mm 0.00 in0.0 mm
02:36 PM 62.7°F17.1°C 29.1°F-1.6°C 28% 2.4 mph S3.9 kmh S 10.0 mph16.1 kmh 30.05 in1017.6 mb 0.00 in0.0 mm 0.00 in0.0 mm 0.00 in0.0 mm
02:41 PM 63.0°F17.2°C 28.3°F-2.1°C 27% 2.6 mph SSE4.2 kmh SSE 7.0 mph11.3 kmh 30.05 in1017.6 mb 0.00 in0.0 mm 0.00 in0.0 mm 0.00 in0.0 mm
02:46 PM 62.9°F17.2°C 27.5°F-2.5°C 26% 3.8 mph S6.1 kmh S 7.0 mph11.3 kmh 30.05 in1017.6 mb 0.00 in0.0 mm 0.00 in0.0 mm 0.00 in0.0 mm
02:51 PM 62.6°F17.0°C 28.1°F-2.2°C 27% 4.7 mph SSE7.6 kmh SSE 9.0 mph14.5 kmh 30.05 in1017.6 mb 0.00 in0.0 mm 0.00 in0.0 mm 0.00 in0.0 mm
02:56 PM 62.4°F16.9°C 28.7°F-1.8°C 28% 4.6 mph SSW7.4 kmh SSW 10.0 mph16.1 kmh 30.05 in1017.6 mb 0.00 in0.0 mm 0.00 in0.0 mm 0.00 in0.0 mm
03:01 PM 62.3°F16.8°C 28.6°F-1.9°C 28% 2.0 mph S3.2 kmh S 10.0 mph16.1 kmh 30.05 in1017.6 mb 0.00 in0.0 mm 0.00 in0.0 mm 0.00 in0.0 mm
03:06 PM 62.4°F16.9°C 28.7°F-1.8°C 28% 2.9 mph S4.7 kmh S 10.0 mph16.1 kmh 30.05 in1017.6 mb 0.00 in0.0 mm 0.00 in0.0 mm 0.00 in0.0 mm
03:11 PM 62.4°F16.9°C 29.5°F-1.4°C 29% 3.4 mph S5.5 kmh S 10.0 mph16.1 kmh 30.05 in1017.6 mb 0.00 in0.0 mm 0.00 in0.0 mm 0.00 in0.0 mm
03:16 PM 62.2°F16.8°C 29.3°F-1.5°C 29% 3.1 mph SSE5.0 kmh SSE 8.0 mph12.9 kmh 30.05 in1017.6 mb 0.00 in0.0 mm 0.00 in0.0 mm 0.00 in0.0 mm
03:21 PM 62.3°F16.8°C 30.4°F-0.9°C 30% 2.4 mph S3.9 kmh S 8.0 mph12.9 kmh 30.04 in1017.3 mb 0.00 in0.0 mm 0.00 in0.0 mm 0.00 in0.0 mm
03:25 PM 62.3°F16.8°C 29.6°F-1.3°C 29% 2.7 mph SSW4.3 kmh SSW 8.0 mph12.9 kmh 30.05 in1017.6 mb 0.00 in0.0 mm 0.00 in0.0 mm 0.00 in0.0 mm
03:30 PM 62.2°F16.8°C 27.8°F-2.3°C 27% 3.5 mph SSE5.6 kmh SSE 9.0 mph14.5 kmh 30.05 in1017.6 mb 0.00 in0.0 mm 0.00 in0.0 mm 0.00 in0.0 mm
03:35 PM 62.0°F16.7°C 28.3°F-2.1°C 28% 4.4 mph SSW7.1 kmh SSW 9.0 mph14.5 kmh 30.05 in1017.6 mb 0.00 in0.0 mm 0.00 in0.0 mm 0.00 in0.0 mm
03:40 PM 61.9°F16.6°C 28.2°F-2.1°C 28% 4.7 mph SSW7.6 kmh SSW 12.0 mph19.3 kmh 30.05 in1017.6 mb 0.00 in0.0 mm 0.00 in0.0 mm 0.00 in0.0 mm
03:45 PM 61.6°F16.4°C 28.8°F-1.8°C 29% 5.1 mph SSW8.2 kmh SSW 12.0 mph19.3 kmh 30.04 in1017.3 mb 0.00 in0.0 mm 0.00 in0.0 mm 0.00 in0.0 mm
03:50 PM 61.5°F16.4°C 28.7°F-1.8°C 29% 4.0 mph SW6.4 kmh SW 12.0 mph19.3 kmh 30.05 in1017.6 mb 0.00 in0.0 mm 0.00 in0.0 mm 0.00 in0.0 mm
03:55 PM 61.6°F16.4°C 29.8°F-1.2°C 30% 1.3 mph SSW2.1 kmh SSW 12.0 mph19.3 kmh 30.04 in1017.3 mb 0.00 in0.0 mm 0.00 in0.0 mm 0.00 in0.0 mm
04:00 PM 61.4°F16.3°C 28.6°F-1.9°C 29% 5.0 mph SW8.0 kmh SW 12.0 mph19.3 kmh 30.05 in1017.6 mb 0.00 in0.0 mm 0.00 in0.0 mm 0.00 in0.0 mm
04:05 PM 61.4°F16.3°C 29.5°F-1.4°C 30% 1.1 mph S1.8 kmh S 12.0 mph19.3 kmh 30.04 in1017.3 mb 0.00 in0.0 mm 0.00 in0.0 mm 0.00 in0.0 mm
04:10 PM 61.7°F16.5°C 28.9°F-1.7°C 29% 2.9 mph SSW4.7 kmh SSW 12.0 mph19.3 kmh 30.04 in1017.3 mb 0.00 in0.0 mm 0.00 in0.0 mm 0.00 in0.0 mm
04:15 PM 61.5°F16.4°C 30.6°F-0.8°C 31% 3.3 mph SW5.3 kmh SW 12.0 mph19.3 kmh 30.04 in1017.3 mb 0.00 in0.0 mm 0.00 in0.0 mm 0.00 in0.0 mm
04:20 PM 61.5°F16.4°C 29.7°F-1.3°C 30% 4.1 mph SW6.6 kmh SW 8.0 mph12.9 kmh 30.05 in1017.6 mb 0.00 in0.0 mm 0.00 in0.0 mm 0.00 in0.0 mm
04:25 PM 61.5°F16.4°C 30.4°F-0.9°C 31% 4.5 mph SW7.2 kmh SW 9.0 mph14.5 kmh 30.04 in1017.3 mb 0.00 in0.0 mm 0.00 in0.0 mm 0.00 in0.0 mm
04:30 PM 61.4°F16.3°C 31.1°F-0.5°C 32% 4.1 mph SW6.6 kmh SW 9.0 mph14.5 kmh 30.04 in1017.3 mb 0.00 in0.0 mm 0.00 in0.0 mm 0.00 in0.0 mm
04:35 PM 61.3°F16.3°C 31.0°F-0.6°C 32% 2.7 mph SSW4.3 kmh SSW 9.0 mph14.5 kmh 30.04 in1017.3 mb 0.00 in0.0 mm 0.00 in0.0 mm 0.00 in0.0 mm
04:40 PM 60.9°F16.1°C 29.8°F-1.2°C 31% 3.8 mph SW6.1 kmh SW 9.0 mph14.5 kmh 30.04 in1017.3 mb 0.00 in0.0 mm 0.00 in0.0 mm 0.00 in0.0 mm
04:45 PM 61.0°F16.1°C 29.9°F-1.2°C 31% 4.5 mph SSW7.2 kmh SSW 10.0 mph16.1 kmh 30.04 in1017.3 mb 0.00 in0.0 mm 0.00 in0.0 mm 0.00 in0.0 mm
04:50 PM 61.3°F16.3°C 31.7°F-0.2°C 33% 2.0 mph S3.2 kmh S 10.0 mph16.1 kmh 30.03 in1016.9 mb 0.00 in0.0 mm 0.00 in0.0 mm 0.00 in0.0 mm
04:55 PM 61.2°F16.2°C 30.9°F-0.6°C 32% 3.3 mph S5.3 kmh S 10.0 mph16.1 kmh 30.03 in1016.9 mb 0.00 in0.0 mm 0.00 in0.0 mm 0.00 in0.0 mm
05:00 PM 60.8°F16.0°C 31.3°F-0.4°C 33% 1.4 mph SW2.3 kmh SW 10.0 mph16.1 kmh 30.03 in1016.9 mb 0.00 in0.0 mm 0.00 in0.0 mm 0.00 in0.0 mm
05:05 PM 60.5°F15.8°C 31.2°F-0.4°C 33% 4.4 mph SSW7.1 kmh SSW 8.0 mph12.9 kmh 30.04 in1017.3 mb 0.00 in0.0 mm 0.00 in0.0 mm 0.00 in0.0 mm
05:10 PM 60.2°F15.7°C 31.7°F-0.2°C 34% 1.2 mph S1.9 kmh S 8.0 mph12.9 kmh 30.03 in1016.9 mb 0.00 in0.0 mm 0.00 in0.0 mm 0.00 in0.0 mm
05:15 PM 60.0°F15.6°C 32.0°F0.0°C 35% 1.0 mph SSW1.6 kmh SSW 8.0 mph12.9 kmh 30.04 in1017.3 mb 0.00 in0.0 mm 0.00 in0.0 mm 0.00 in0.0 mm
05:20 PM 59.8°F15.4°C 31.9°F-0.1°C 35% 2.8 mph S4.5 kmh S 8.0 mph12.9 kmh 30.03 in1016.9 mb 0.00 in0.0 mm 0.00 in0.0 mm 0.00 in0.0 mm
05:25 PM 59.6°F15.3°C 31.7°F-0.2°C 35% 2.3 mph SSE3.7 kmh SSE 6.0 mph9.7 kmh 30.02 in1016.6 mb 0.00 in0.0 mm 0.00 in0.0 mm 0.00 in0.0 mm
05:30 PM 59.5°F15.3°C 31.6°F-0.2°C 35% 1.6 mph S2.6 kmh S 6.0 mph9.7 kmh 30.03 in1016.9 mb 0.00 in0.0 mm 0.00 in0.0 mm 0.00 in0.0 mm
05:35 PM 59.4°F15.2°C 32.2°F0.1°C 36% 1.4 mph SSE2.3 kmh SSE 5.0 mph8.0 kmh 30.03 in1016.9 mb 0.00 in0.0 mm 0.00 in0.0 mm 0.00 in0.0 mm
05:40 PM 59.2°F15.1°C 32.2°F0.1°C 36% Calm Calm 4.0 mph6.4 kmh 30.03 in1016.9 mb 0.00 in0.0 mm 0.00 in0.0 mm 0.00 in0.0 mm
05:45 PM 59.0°F15.0°C 32.7°F0.4°C 37% 1.5 mph SSE2.4 kmh SSE 3.0 mph4.8 kmh 30.03 in1016.9 mb 0.00 in0.0 mm 0.00 in0.0 mm 0.00 in0.0 mm
05:50 PM 58.8°F14.9°C 33.1°F0.6°C 38% 1.6 mph S2.6 kmh S 3.0 mph4.8 kmh 30.03 in1016.9 mb 0.00 in0.0 mm 0.00 in0.0 mm 0.00 in0.0 mm
05:55 PM 58.6°F14.8°C 32.9°F0.5°C 38% 1.5 mph SE2.4 kmh SE 3.0 mph4.8 kmh 30.03 in1016.9 mb 0.00 in0.0 mm 0.00 in0.0 mm 0.00 in0.0 mm
06:00 PM 58.4°F14.7°C 33.4°F0.8°C 39% 1.3 mph SE2.1 kmh SE 3.0 mph4.8 kmh 30.03 in1016.9 mb 0.00 in0.0 mm 0.00 in0.0 mm 0.00 in0.0 mm
06:05 PM 58.2°F14.6°C 33.8°F1.0°C 40% 1.0 mph SE1.6 kmh SE 3.0 mph4.8 kmh 30.04 in1017.3 mb 0.00 in0.0 mm 0.00 in0.0 mm 0.00 in0.0 mm
06:10 PM 58.0°F14.4°C 33.6°F0.9°C 40% 1.4 mph SSE2.3 kmh SSE 3.0 mph4.8 kmh 30.04 in1017.3 mb 0.00 in0.0 mm 0.00 in0.0 mm 0.00 in0.0 mm
06:15 PM 57.8°F14.3°C 34.1°F1.2°C 41% 1.3 mph SE2.1 kmh SE 3.0 mph4.8 kmh 30.04 in1017.3 mb 0.00 in0.0 mm 0.00 in0.0 mm 0.00 in0.0 mm
06:20 PM 57.7°F14.3°C 34.0°F1.1°C 41% 1.7 mph SE2.7 kmh SE 4.0 mph6.4 kmh 30.03 in1016.9 mb 0.00 in0.0 mm 0.00 in0.0 mm 0.00 in0.0 mm
06:25 PM 57.6°F14.2°C 33.9°F1.1°C 41% 2.1 mph SE3.4 kmh SE 5.0 mph8.0 kmh 30.03 in1016.9 mb 0.00 in0.0 mm 0.00 in0.0 mm 0.00 in0.0 mm
06:30 PM 57.4°F14.1°C 33.7°F0.9°C 41% 2.2 mph SSE3.5 kmh SSE 6.0 mph9.7 kmh 30.04 in1017.3 mb 0.00 in0.0 mm 0.00 in0.0 mm 0.00 in0.0 mm
06:35 PM 57.2°F14.0°C 34.2°F1.2°C 42% 1.5 mph SSE2.4 kmh SSE 6.0 mph9.7 kmh 30.03 in1016.9 mb 0.00 in0.0 mm 0.00 in0.0 mm 0.00 in0.0 mm
06:40 PM 57.1°F13.9°C 34.1°F1.2°C 42% 3.2 mph SSE5.1 kmh SSE 8.0 mph12.9 kmh 30.02 in1016.6 mb 0.00 in0.0 mm 0.00 in0.0 mm 0.00 in0.0 mm
06:45 PM 56.9°F13.8°C 33.9°F1.1°C 42% 3.1 mph S5.0 kmh S 8.0 mph12.9 kmh 30.02 in1016.6 mb 0.00 in0.0 mm 0.00 in0.0 mm 0.00 in0.0 mm
06:50 PM 56.9°F13.8°C 33.9°F1.1°C 42% 3.5 mph SSE5.6 kmh SSE 8.0 mph12.9 kmh 30.02 in1016.6 mb 0.00 in0.0 mm 0.00 in0.0 mm 0.00 in0.0 mm
06:55 PM 56.7°F13.7°C 33.8°F1.0°C 42% 2.2 mph S3.5 kmh S 8.0 mph12.9 kmh 30.02 in1016.6 mb 0.00 in0.0 mm 0.00 in0.0 mm 0.00 in0.0 mm
07:00 PM 56.7°F13.7°C 33.8°F1.0°C 42% 3.8 mph SSE6.1 kmh SSE 8.0 mph12.9 kmh 30.02 in1016.6 mb 0.00 in0.0 mm 0.00 in0.0 mm 0.00 in0.0 mm
07:05 PM 56.7°F13.7°C 33.7°F0.9°C 42% 1.8 mph S2.9 kmh S 7.0 mph11.3 kmh 30.02 in1016.6 mb 0.00 in0.0 mm 0.00 in0.0 mm 0.00 in0.0 mm
07:10 PM 56.6°F13.7°C 33.6°F0.9°C 42% 2.0 mph S3.2 kmh S 7.0 mph11.3 kmh 30.02 in1016.6 mb 0.00 in0.0 mm 0.00 in0.0 mm 0.00 in0.0 mm
07:15 PM 56.5°F13.6°C 33.5°F0.8°C 42% 1.4 mph SSW2.3 kmh SSW 6.0 mph9.7 kmh 30.03 in1016.9 mb 0.00 in0.0 mm 0.00 in0.0 mm 0.00 in0.0 mm
07:20 PM 56.5°F13.6°C 33.5°F0.8°C 42% 2.4 mph S3.9 kmh S 5.0 mph8.0 kmh 30.02 in1016.6 mb 0.00 in0.0 mm 0.00 in0.0 mm 0.00 in0.0 mm
07:25 PM 56.4°F13.6°C 33.6°F0.9°C 42% 2.0 mph S3.2 kmh S 6.0 mph9.7 kmh 30.02 in1016.6 mb 0.00 in0.0 mm 0.00 in0.0 mm 0.00 in0.0 mm
07:30 PM 56.3°F13.5°C 33.5°F0.8°C 42% 2.9 mph S4.7 kmh S 7.0 mph11.3 kmh 30.03 in1016.9 mb 0.00 in0.0 mm 0.00 in0.0 mm 0.00 in0.0 mm
07:35 PM 56.3°F13.5°C 34.0°F1.1°C 43% 3.4 mph S5.5 kmh S 7.0 mph11.3 kmh 30.03 in1016.9 mb 0.00 in0.0 mm 0.00 in0.0 mm 0.00 in0.0 mm
07:40 PM 56.3°F13.5°C 34.0°F1.1°C 43% 2.4 mph SE3.9 kmh SE 8.0 mph12.9 kmh 30.03 in1016.9 mb 0.00 in0.0 mm 0.00 in0.0 mm 0.00 in0.0 mm
07:45 PM 56.1°F13.4°C 33.8°F1.0°C 43% 2.8 mph S4.5 kmh S 8.0 mph12.9 kmh 30.03 in1016.9 mb 0.00 in0.0 mm 0.00 in0.0 mm 0.00 in0.0 mm
07:50 PM 56.1°F13.4°C 34.4°F1.3°C 44% 2.3 mph S3.7 kmh S 8.0 mph12.9 kmh 30.04 in1017.3 mb 0.00 in0.0 mm 0.00 in0.0 mm 0.00 in0.0 mm
07:55 PM 55.9°F13.3°C 34.2°F1.2°C 44% 2.6 mph S4.2 kmh S 8.0 mph12.9 kmh 30.04 in1017.3 mb 0.00 in0.0 mm 0.00 in0.0 mm 0.00 in0.0 mm
08:00 PM 55.7°F13.2°C 34.1°F1.2°C 44% 2.3 mph SW3.7 kmh SW 6.0 mph9.7 kmh 30.04 in1017.3 mb 0.00 in0.0 mm 0.00 in0.0 mm 0.00 in0.0 mm
08:05 PM 55.5°F13.1°C 34.5°F1.4°C 45% 1.7 mph SW2.7 kmh SW 6.0 mph9.7 kmh 30.04 in1017.3 mb 0.00 in0.0 mm 0.00 in0.0 mm 0.00 in0.0 mm
08:10 PM 55.4°F13.0°C 34.3°F1.3°C 45% 2.0 mph SW3.2 kmh SW 6.0 mph9.7 kmh 30.04 in1017.3 mb 0.00 in0.0 mm 0.00 in0.0 mm 0.00 in0.0 mm
08:15 PM 55.3°F12.9°C 34.2°F1.2°C 45% 2.1 mph SSW3.4 kmh SSW 5.0 mph8.0 kmh 30.03 in1016.9 mb 0.00 in0.0 mm 0.00 in0.0 mm 0.00 in0.0 mm
08:20 PM 55.1°F12.8°C 34.0°F1.1°C 45% 2.3 mph SW3.7 kmh SW 5.0 mph8.0 kmh 30.03 in1016.9 mb 0.00 in0.0 mm 0.00 in0.0 mm 0.00 in0.0 mm
08:25 PM 55.0°F12.8°C 34.5°F1.4°C 46% 1.7 mph SW2.7 kmh SW 5.0 mph8.0 kmh 30.03 in1016.9 mb 0.00 in0.0 mm 0.00 in0.0 mm 0.00 in0.0 mm
08:30 PM 54.8°F12.7°C 34.3°F1.3°C 46% 2.1 mph S3.4 kmh S 5.0 mph8.0 kmh 30.03 in1016.9 mb 0.00 in0.0 mm 0.00 in0.0 mm 0.00 in0.0 mm
08:36 PM 54.6°F12.6°C 34.8°F1.6°C 47% 2.3 mph SSW3.7 kmh SSW 5.0 mph8.0 kmh 30.02 in1016.6 mb 0.00 in0.0 mm 0.00 in0.0 mm 0.00 in0.0 mm
08:40 PM 54.5°F12.5°C 34.6°F1.4°C 47% 1.9 mph SSW3.1 kmh SSW 6.0 mph9.7 kmh 30.02 in1016.6 mb 0.00 in0.0 mm 0.00 in0.0 mm 0.00 in0.0 mm
08:46 PM 54.3°F12.4°C 34.4°F1.3°C 47% 2.7 mph SSW4.3 kmh SSW 6.0 mph9.7 kmh 30.02 in1016.6 mb 0.00 in0.0 mm 0.00 in0.0 mm 0.00 in0.0 mm
08:51 PM 54.3°F12.4°C 34.4°F1.3°C 47% 1.6 mph SW2.6 kmh SW 6.0 mph9.7 kmh 30.02 in1016.6 mb 0.00 in0.0 mm 0.00 in0.0 mm 0.00 in0.0 mm
08:56 PM 54.1°F12.3°C 34.3°F1.3°C 47% 2.0 mph SSW3.2 kmh SSW 6.0 mph9.7 kmh 30.02 in1016.6 mb 0.00 in0.0 mm 0.00 in0.0 mm 0.00 in0.0 mm
09:01 PM 54.1°F12.3°C 34.8°F1.6°C 48% 2.8 mph SSW4.5 kmh SSW 6.0 mph9.7 kmh 30.02 in1016.6 mb 0.00 in0.0 mm 0.00 in0.0 mm 0.00 in0.0 mm
09:06 PM 54.0°F12.2°C 34.7°F1.5°C 48% 2.3 mph SSW3.7 kmh SSW 6.0 mph9.7 kmh 30.03 in1016.9 mb 0.00 in0.0 mm 0.00 in0.0 mm 0.00 in0.0 mm
09:11 PM 53.8°F12.1°C 34.5°F1.4°C 48% 2.0 mph S3.2 kmh S 6.0 mph9.7 kmh 30.03 in1016.9 mb 0.00 in0.0 mm 0.00 in0.0 mm 0.00 in0.0 mm
09:16 PM 53.8°F12.1°C 34.5°F1.4°C 48% 2.3 mph SSW3.7 kmh SSW 5.0 mph8.0 kmh 30.03 in1016.9 mb 0.00 in0.0 mm 0.00 in0.0 mm 0.00 in0.0 mm
09:21 PM 53.7°F12.1°C 34.4°F1.3°C 48% 1.9 mph SSW3.1 kmh SSW 6.0 mph9.7 kmh 30.03 in1016.9 mb 0.00 in0.0 mm 0.00 in0.0 mm 0.00 in0.0 mm
09:24 PM 53.7°F12.1°C 34.4°F1.3°C 48% 2.6 mph SSW4.2 kmh SSW 7.0 mph11.3 kmh 30.03 in1016.9 mb 0.00 in0.0 mm 0.00 in0.0 mm 0.00 in0.0 mm
09:29 PM 53.6°F12.0°C 34.9°F1.6°C 49% 2.2 mph S3.5 kmh S 7.0 mph11.3 kmh 30.02 in1016.6 mb 0.00 in0.0 mm 0.00 in0.0 mm 0.00 in0.0 mm
09:34 PM 53.7°F12.1°C 35.0°F1.7°C 49% 2.7 mph S4.3 kmh S 7.0 mph11.3 kmh 30.02 in1016.6 mb 0.00 in0.0 mm 0.00 in0.0 mm 0.00 in0.0 mm
09:39 PM 53.6°F12.0°C 34.9°F1.6°C 49% 3.5 mph S5.6 kmh S 8.0 mph12.9 kmh 30.02 in1016.6 mb 0.00 in0.0 mm 0.00 in0.0 mm 0.00 in0.0 mm
09:44 PM 53.5°F11.9°C 34.8°F1.6°C 49% 3.8 mph SSW6.1 kmh SSW 9.0 mph14.5 kmh 30.02 in1016.6 mb 0.00 in0.0 mm 0.00 in0.0 mm 0.00 in0.0 mm
09:49 PM 53.6°F12.0°C 34.9°F1.6°C 49% 5.3 mph SSW8.5 kmh SSW 9.0 mph14.5 kmh 30.02 in1016.6 mb 0.00 in0.0 mm 0.00 in0.0 mm 0.00 in0.0 mm
09:55 PM 53.6°F12.0°C 34.9°F1.6°C 49% 3.9 mph SSW6.3 kmh SSW 9.0 mph14.5 kmh 30.02 in1016.6 mb 0.00 in0.0 mm 0.00 in0.0 mm 0.00 in0.0 mm
09:59 PM 53.6°F12.0°C 34.9°F1.6°C 49% 4.9 mph SSW7.9 kmh SSW 10.0 mph16.1 kmh 30.02 in1016.6 mb 0.00 in0.0 mm 0.00 in0.0 mm 0.00 in0.0 mm
10:04 PM 53.6°F12.0°C 35.4°F1.9°C 50% 2.6 mph SSW4.2 kmh SSW 10.0 mph16.1 kmh 30.02 in1016.6 mb 0.00 in0.0 mm 0.00 in0.0 mm 0.00 in0.0 mm
10:10 PM 53.6°F12.0°C 35.4°F1.9°C 50% 3.9 mph S6.3 kmh S 10.0 mph16.1 kmh 30.02 in1016.6 mb 0.00 in0.0 mm 0.00 in0.0 mm 0.00 in0.0 mm
10:15 PM 53.5°F11.9°C 35.3°F1.8°C 50% 4.2 mph S6.8 kmh S 10.0 mph16.1 kmh 30.02 in1016.6 mb 0.00 in0.0 mm 0.00 in0.0 mm 0.00 in0.0 mm
10:20 PM 53.5°F11.9°C 35.3°F1.8°C 50% 4.4 mph SSW7.1 kmh SSW 9.0 mph14.5 kmh 30.02 in1016.6 mb 0.00 in0.0 mm 0.00 in0.0 mm 0.00 in0.0 mm
10:25 PM 53.4°F11.9°C 35.2°F1.8°C 50% 3.8 mph SSW6.1 kmh SSW 9.0 mph14.5 kmh 30.02 in1016.6 mb 0.00 in0.0 mm 0.00 in0.0 mm 0.00 in0.0 mm
10:30 PM 53.3°F11.8°C 35.6°F2.0°C 51% 4.4 mph S7.1 kmh S 10.0 mph16.1 kmh 30.02 in1016.6 mb 0.00 in0.0 mm 0.00 in0.0 mm 0.00 in0.0 mm
10:35 PM 53.3°F11.8°C 35.6°F2.0°C 51% 3.5 mph SSW5.6 kmh SSW 10.0 mph16.1 kmh 30.01 in1016.3 mb 0.00 in0.0 mm 0.00 in0.0 mm 0.00 in0.0 mm
10:40 PM 53.4°F11.9°C 35.7°F2.1°C 51% 4.2 mph SSW6.8 kmh SSW 10.0 mph16.1 kmh 30.01 in1016.3 mb 0.00 in0.0 mm 0.00 in0.0 mm 0.00 in0.0 mm
10:45 PM 53.4°F11.9°C 35.7°F2.1°C 51% 3.6 mph SSW5.8 kmh SSW 10.0 mph16.1 kmh 30.01 in1016.3 mb 0.00 in0.0 mm 0.00 in0.0 mm 0.00 in0.0 mm
10:50 PM 53.4°F11.9°C 35.7°F2.1°C 51% 3.9 mph SSW6.3 kmh SSW 10.0 mph16.1 kmh 30.02 in1016.6 mb 0.00 in0.0 mm 0.00 in0.0 mm 0.00 in0.0 mm
10:55 PM 53.3°F11.8°C 35.6°F2.0°C 51% 3.7 mph SSW6.0 kmh SSW 10.0 mph16.1 kmh 30.02 in1016.6 mb 0.00 in0.0 mm 0.00 in0.0 mm 0.00 in0.0 mm
11:00 PM 53.2°F11.8°C 35.5°F1.9°C 51% 4.4 mph SSW7.1 kmh SSW 10.0 mph16.1 kmh 30.02 in1016.6 mb 0.00 in0.0 mm 0.00 in0.0 mm 0.00 in0.0 mm
11:05 PM 53.2°F11.8°C 36.0°F2.2°C 52% 3.2 mph SSW5.1 kmh SSW 10.0 mph16.1 kmh 30.02 in1016.6 mb 0.00 in0.0 mm 0.00 in0.0 mm 0.00 in0.0 mm
11:10 PM 53.2°F11.8°C 35.5°F1.9°C 51% 3.4 mph SSW5.5 kmh SSW 10.0 mph16.1 kmh 30.02 in1016.6 mb 0.00 in0.0 mm 0.00 in0.0 mm 0.00 in0.0 mm
11:15 PM 53.2°F11.8°C 36.0°F2.2°C 52% 3.2 mph SW5.1 kmh SW 10.0 mph16.1 kmh 30.01 in1016.3 mb 0.00 in0.0 mm 0.00 in0.0 mm 0.00 in0.0 mm
11:20 PM 53.2°F11.8°C 36.0°F2.2°C 52% 4.8 mph SSW7.7 kmh SSW 9.0 mph14.5 kmh 30.01 in1016.3 mb 0.00 in0.0 mm 0.00 in0.0 mm 0.00 in0.0 mm
11:25 PM 53.2°F11.8°C 36.0°F2.2°C 52% 4.2 mph S6.8 kmh S 9.0 mph14.5 kmh 30.00 in1015.9 mb 0.00 in0.0 mm 0.00 in0.0 mm 0.00 in0.0 mm
11:30 PM 53.2°F11.8°C 36.0°F2.2°C 52% 4.2 mph S6.8 kmh S 10.0 mph16.1 kmh 30.00 in1015.9 mb 0.00 in0.0 mm 0.00 in0.0 mm 0.00 in0.0 mm
11:35 PM 53.3°F11.8°C 36.1°F2.3°C 52% 4.5 mph S7.2 kmh S 10.0 mph16.1 kmh 30.00 in1015.9 mb 0.00 in0.0 mm 0.00 in0.0 mm 0.00 in0.0 mm
11:40 PM 53.4°F11.9°C 36.2°F2.3°C 52% 4.8 mph S7.7 kmh S 10.0 mph16.1 kmh 30.00 in1015.9 mb 0.00 in0.0 mm 0.00 in0.0 mm 0.00 in0.0 mm
11:45 PM 53.4°F11.9°C 36.2°F2.3°C 52% 4.8 mph SSW7.7 kmh SSW 10.0 mph16.1 kmh 30.00 in1015.9 mb 0.00 in0.0 mm 0.00 in0.0 mm 0.00 in0.0 mm
11:50 PM 53.4°F11.9°C 36.2°F2.3°C 52% 4.2 mph SW6.8 kmh SW 11.0 mph17.7 kmh 30.01 in1016.3 mb 0.00 in0.0 mm 0.00 in0.0 mm 0.00 in0.0 mm
11:55 PM 53.6°F12.0°C 36.4°F2.4°C 52% 4.8 mph SSW7.7 kmh SSW 11.0 mph17.7 kmh 30.01 in1016.3 mb 0.00 in0.0 mm 0.00 in0.0 mm 0.00 in0.0 mm